createdAt,value
2022-10-11T00:01:16.491Z,11.23
2022-10-11T00:03:45.110Z,8.37
2022-10-11T00:06:13.410Z,12.17
2022-10-11T00:08:43.091Z,10.23
2022-10-11T00:11:11.922Z,8.87
2022-10-11T00:13:40.146Z,7.60
2022-10-11T00:16:10.493Z,7.13
2022-10-11T00:18:40.014Z,6.23
2022-10-11T00:21:10.162Z,8.43
2022-10-11T00:23:38.723Z,11.23
2022-10-11T00:26:10.229Z,11.70
2022-10-11T00:28:58.743Z,6.70
2022-10-11T00:31:30.911Z,8.27
2022-10-11T00:34:58.576Z,8.40
2022-10-11T00:37:27.026Z,10.97
2022-10-11T00:39:55.354Z,9.17
2022-10-11T00:42:25.741Z,10.53
2022-10-11T00:45:14.305Z,13.30
2022-10-11T00:47:42.838Z,11.87
2022-10-11T00:50:12.496Z,10.70
2022-10-11T00:52:44.362Z,7.57
2022-10-11T00:55:15.869Z,9.33
2022-10-11T00:57:49.878Z,9.90
2022-10-11T01:00:18.353Z,7.83
2022-10-11T01:02:47.330Z,8.27
2022-10-11T01:05:29.575Z,8.07
2022-10-11T01:07:59.933Z,11.23
2022-10-11T01:10:29.196Z,8.50
2022-10-11T01:13:20.377Z,8.67
2022-10-11T01:15:56.556Z,10.00
2022-10-11T01:18:33.201Z,8.50
2022-10-11T01:21:07.537Z,13.13
2022-10-11T01:24:08.360Z,9.77
2022-10-11T01:27:25.441Z,10.53
2022-10-11T01:30:04.762Z,10.57
2022-10-11T01:32:40.928Z,8.20
2022-10-11T01:35:17.464Z,11.47
2022-10-11T01:37:54.494Z,13.33
2022-10-11T01:40:27.955Z,9.33
2022-10-11T01:42:58.462Z,11.93
2022-10-11T01:45:27.558Z,11.43
2022-10-11T01:48:05.791Z,11.33
2022-10-11T01:50:44.336Z,9.83
2022-10-11T01:53:47.449Z,11.60
2022-10-11T01:56:29.336Z,8.53
2022-10-11T01:59:16.934Z,10.90
2022-10-11T02:01:54.758Z,10.20
2022-10-11T02:04:32.063Z,10.07
2022-10-11T02:07:10.881Z,9.37
2022-10-11T02:09:47.231Z,12.87
2022-10-11T02:12:23.955Z,11.77
2022-10-11T02:14:55.627Z,10.93
2022-10-11T02:17:30.109Z,9.83
2022-10-11T02:20:03.976Z,10.63
2022-10-11T02:22:37.226Z,9.70
2022-10-11T02:25:10.138Z,10.00
2022-10-11T02:27:41.614Z,8.83
2022-10-11T02:30:12.377Z,9.40
2022-10-11T02:32:45.188Z,10.67
2022-10-11T02:35:15.227Z,7.67
2022-10-11T02:37:52.628Z,9.27
2022-10-11T02:40:24.953Z,9.50
2022-10-11T02:42:58.774Z,7.07
2022-10-11T02:45:31.453Z,8.63
2022-10-11T02:48:00.344Z,8.20
2022-10-11T02:50:30.277Z,7.07
2022-10-11T02:52:58.597Z,9.07
2022-10-11T02:55:27.074Z,9.43
2022-10-11T02:57:55.441Z,8.40
2022-10-11T03:00:23.858Z,10.07
2022-10-11T03:02:52.394Z,9.63
2022-10-11T03:05:21.053Z,10.33
2022-10-11T03:07:53.582Z,8.63
2022-10-11T03:10:22.263Z,9.90
2022-10-11T03:12:51.114Z,12.50
2022-10-11T03:15:19.987Z,9.70
2022-10-11T03:17:48.301Z,7.53
2022-10-11T03:20:16.813Z,8.07
2022-10-11T03:22:45.143Z,8.07
2022-10-11T03:25:33.603Z,7.93
2022-10-11T03:28:02.122Z,6.33
2022-10-11T03:30:30.574Z,7.37
2022-10-11T03:32:58.979Z,10.20
2022-10-11T03:35:27.456Z,6.17
2022-10-11T03:37:56.348Z,7.87
2022-10-11T03:40:24.855Z,8.10
2022-10-11T03:42:56.502Z,9.20
2022-10-11T03:45:24.865Z,8.17
2022-10-11T03:47:53.266Z,7.20
2022-10-11T03:50:24.715Z,8.97
2022-10-11T03:52:53.463Z,8.03
2022-10-11T03:55:21.870Z,7.00
2022-10-11T03:57:50.604Z,5.73
2022-10-11T04:00:20.374Z,7.20
2022-10-11T04:02:48.768Z,7.57
2022-10-11T04:05:17.462Z,6.77
2022-10-11T04:07:45.825Z,7.00
2022-10-11T04:10:14.234Z,8.33
2022-10-11T04:15:47.911Z,8.23
2022-10-11T04:18:16.499Z,6.17
2022-10-11T04:20:45.118Z,8.87
2022-10-11T04:23:13.503Z,7.77
2022-10-11T04:25:41.835Z,8.70
2022-10-11T04:28:10.348Z,7.07
2022-10-11T04:30:38.797Z,7.63
2022-10-11T04:33:08.982Z,6.60
2022-10-11T04:35:37.531Z,8.07
2022-10-11T04:38:06.017Z,7.27
2022-10-11T04:40:34.823Z,10.20
2022-10-11T04:43:03.305Z,6.67
2022-10-11T04:45:32.118Z,7.03
2022-10-11T04:48:22.038Z,6.87
2022-10-11T04:50:50.787Z,7.27
2022-10-11T04:53:19.233Z,7.00
2022-10-11T04:55:57.704Z,6.77
2022-10-11T04:58:26.266Z,7.47
2022-10-11T05:00:54.948Z,6.30
2022-10-11T05:03:25.214Z,8.67
2022-10-11T05:05:56.699Z,8.03
2022-10-11T05:08:25.567Z,9.03
2022-10-11T05:10:58.162Z,6.43
2022-10-11T05:13:26.985Z,8.37
2022-10-11T05:15:55.452Z,7.53
2022-10-11T05:18:25.761Z,7.57
2022-10-11T05:21:00.853Z,7.50
2022-10-11T05:23:29.599Z,7.93
2022-10-11T05:25:58.145Z,8.63
2022-10-11T05:28:26.725Z,8.30
2022-10-11T05:30:55.586Z,7.73
2022-10-11T05:33:25.945Z,9.57
2022-10-11T05:35:56.895Z,10.17
2022-10-11T05:38:26.892Z,6.93
2022-10-11T05:40:55.432Z,4.60
2022-10-11T05:43:44.486Z,8.20
2022-10-11T05:46:13.627Z,7.17
2022-10-11T05:48:43.526Z,7.10
2022-10-11T05:51:14.825Z,7.80
2022-10-11T05:53:50.439Z,10.23
2022-10-11T05:56:23.673Z,7.30
2022-10-11T05:58:59.904Z,7.47
2022-10-11T06:01:33.352Z,5.60
2022-10-11T06:04:04.794Z,9.50
2022-10-11T06:06:33.353Z,8.53
2022-10-11T06:09:01.693Z,9.23
2022-10-11T06:11:30.309Z,6.73
2022-10-11T06:13:59.176Z,9.07
2022-10-11T06:16:29.598Z,7.70
2022-10-11T06:18:58.796Z,8.77
2022-10-11T06:21:28.540Z,6.23
2022-10-11T06:24:01.796Z,8.73
2022-10-11T06:26:36.859Z,8.33
2022-10-11T06:29:05.434Z,10.00
2022-10-11T06:31:34.095Z,10.63
2022-10-11T06:34:02.580Z,7.57
2022-10-11T06:36:37.983Z,7.30
2022-10-11T06:39:08.995Z,8.73
2022-10-11T06:41:46.354Z,7.57
2022-10-11T06:44:26.328Z,9.07
2022-10-11T06:46:56.340Z,6.67
2022-10-11T06:49:24.853Z,11.07
2022-10-11T06:51:55.385Z,9.60
2022-10-11T06:54:24.410Z,9.10
2022-10-11T06:56:54.291Z,6.93
2022-10-11T06:59:22.766Z,8.23
2022-10-11T07:01:51.103Z,6.77
2022-10-11T07:04:19.431Z,6.63
2022-10-11T07:06:48.042Z,6.30
2022-10-11T07:09:17.862Z,8.20
2022-10-11T07:11:48.458Z,7.73
2022-10-11T07:14:16.947Z,8.07
2022-10-11T07:16:45.360Z,7.03
2022-10-11T07:19:13.873Z,7.70
2022-10-11T07:21:42.315Z,8.80
2022-10-11T07:24:10.831Z,6.70
2022-10-11T07:26:40.863Z,6.20
2022-10-11T07:29:11.243Z,7.37
2022-10-11T07:31:42.063Z,4.77
2022-10-11T07:34:10.847Z,6.40
2022-10-11T07:36:39.238Z,7.23
2022-10-11T07:39:09.350Z,9.30
2022-10-11T07:41:43.157Z,15.20
2022-10-11T07:44:19.705Z,8.93
2022-10-11T07:46:48.192Z,11.73
2022-10-11T07:49:16.628Z,12.30
2022-10-11T07:51:47.798Z,10.57
2022-10-11T07:54:16.591Z,10.00
2022-10-11T07:56:45.579Z,10.33
2022-10-11T07:59:15.721Z,8.00
2022-10-11T08:02:00.090Z,10.47
2022-10-11T08:04:32.388Z,7.17
2022-10-11T08:07:01.773Z,8.57
2022-10-11T08:09:33.690Z,10.97
2022-10-11T08:12:02.387Z,10.13
2022-10-11T08:14:32.336Z,9.90
2022-10-11T08:17:15.915Z,9.17
2022-10-11T08:19:45.689Z,6.87
2022-10-11T08:22:14.490Z,7.30
2022-10-11T08:24:43.292Z,8.20
2022-10-11T08:27:12.141Z,10.03
2022-10-11T08:29:42.307Z,8.83
2022-10-11T08:32:12.235Z,7.57
2022-10-11T08:34:41.265Z,9.07
2022-10-11T08:37:09.985Z,7.70
2022-10-11T08:39:38.893Z,6.53
2022-10-11T08:42:14.088Z,9.03
2022-10-11T08:47:41.063Z,7.87
2022-10-11T08:50:19.757Z,6.17
2022-10-11T08:52:52.634Z,6.57
2022-10-11T08:55:29.458Z,9.53
2022-10-11T08:57:59.846Z,7.10
2022-10-11T09:00:34.154Z,6.90
2022-10-11T09:03:24.468Z,8.30
2022-10-11T09:06:02.499Z,7.47
2022-10-11T09:08:39.101Z,8.13
2022-10-11T09:11:15.867Z,5.87
2022-10-11T09:14:01.175Z,6.40
2022-10-11T09:16:43.731Z,6.53
2022-10-11T09:19:38.835Z,6.13
2022-10-11T09:22:16.014Z,9.35
2022-10-11T09:25:00.995Z,7.40
2022-10-11T09:28:01.213Z,7.28
2022-10-11T09:30:27.143Z,8.00
2022-10-11T09:33:11.194Z,9.93
2022-10-11T09:35:43.562Z,7.28
2022-10-11T09:38:22.923Z,6.82
2022-10-11T09:41:01.633Z,7.30
2022-10-11T09:43:30.279Z,6.03
2022-10-11T09:45:59.134Z,8.57
2022-10-11T09:48:36.575Z,6.70
2022-10-11T09:51:13.764Z,7.32
2022-10-11T09:53:54.977Z,5.72
2022-10-11T09:56:24.836Z,8.98
2022-10-11T09:59:22.925Z,6.80
2022-10-11T10:02:06.992Z,8.00
2022-10-11T10:04:37.016Z,9.32
2022-10-11T10:07:13.671Z,8.30
2022-10-11T10:09:42.228Z,8.35
2022-10-11T10:12:14.296Z,7.93
2022-10-11T10:14:43.060Z,8.52
2022-10-11T10:17:18.287Z,8.02
2022-10-11T10:19:52.537Z,8.35
2022-10-11T10:22:23.182Z,6.63
2022-10-11T10:24:53.063Z,7.28
2022-10-11T10:27:23.503Z,7.50
2022-10-11T10:30:05.885Z,8.07
2022-10-11T10:32:43.749Z,7.57
2022-10-11T10:35:24.404Z,8.63
2022-10-11T10:37:58.671Z,8.00
2022-10-11T10:40:34.083Z,6.68
2022-10-11T10:43:02.531Z,6.90
2022-10-11T10:45:39.516Z,7.55
2022-10-11T10:48:22.779Z,9.30
2022-10-11T10:50:58.603Z,8.90
2022-10-11T10:53:36.342Z,6.90
2022-10-11T10:56:55.510Z,7.65
2022-10-11T11:00:04.995Z,8.48
2022-10-11T11:02:41.669Z,9.07
2022-10-11T11:05:21.530Z,6.72
2022-10-11T11:07:55.995Z,10.63
2022-10-11T11:10:29.690Z,5.35
2022-10-11T11:13:13.649Z,7.18
2022-10-11T11:15:47.300Z,9.10
2022-10-11T11:18:30.254Z,10.57
2022-10-11T11:21:27.979Z,7.75
2022-10-11T11:24:05.852Z,9.10
2022-10-11T11:26:44.475Z,9.55
2022-10-11T11:29:38.336Z,9.77
2022-10-11T11:32:21.551Z,9.30
2022-10-11T11:34:58.394Z,8.25
2022-10-11T11:37:32.077Z,8.07
2022-10-11T11:40:08.850Z,9.10
2022-10-11T11:42:42.915Z,7.97
2022-10-11T11:45:19.579Z,8.97
2022-10-11T11:47:54.068Z,8.17
2022-10-11T11:50:27.321Z,9.87
2022-10-11T11:53:00.843Z,8.30
2022-10-11T11:55:41.278Z,11.23
2022-10-11T11:58:31.379Z,7.53
2022-10-11T12:01:08.694Z,8.70
2022-10-11T12:03:42.253Z,9.00
2022-10-11T12:06:27.298Z,8.17
2022-10-11T12:09:06.441Z,7.60
2022-10-11T12:11:47.402Z,7.70
2022-10-11T12:17:19.427Z,9.10
2022-10-11T12:20:16.234Z,11.10
2022-10-11T12:23:00.306Z,9.03
2022-10-11T12:25:47.192Z,9.10
2022-10-11T12:28:53.315Z,8.57
2022-10-11T12:31:27.420Z,13.07
2022-10-11T12:34:36.284Z,9.33
2022-10-11T12:37:46.802Z,9.67
2022-10-11T12:40:41.888Z,9.90
2022-10-11T12:43:23.716Z,9.60
2022-10-11T12:45:52.461Z,11.00
2022-10-11T12:48:45.481Z,9.53
2022-10-11T12:51:31.450Z,8.53
2022-10-11T12:54:36.859Z,9.43
2022-10-11T12:57:45.929Z,7.60
2022-10-11T13:00:20.830Z,8.70
2022-10-11T13:02:50.431Z,8.57
2022-10-11T13:05:25.266Z,10.97
2022-10-11T13:07:55.097Z,11.27
2022-10-11T13:10:28.829Z,9.10
2022-10-11T13:12:59.689Z,9.50
2022-10-11T13:15:29.594Z,11.00
2022-10-11T13:18:01.004Z,7.27
2022-10-11T13:20:37.524Z,9.70
2022-10-11T13:23:34.974Z,9.10
2022-10-11T13:26:04.037Z,9.67
2022-10-11T13:28:36.481Z,9.73
2022-10-11T13:31:06.921Z,10.23
2022-10-11T13:33:39.218Z,9.93
2022-10-11T13:36:17.633Z,9.33
2022-10-11T13:38:53.534Z,10.73
2022-10-11T13:41:22.738Z,9.20
2022-10-11T13:44:06.068Z,9.87
2022-10-11T13:46:41.698Z,9.43
2022-10-11T13:49:29.244Z,9.00
2022-10-11T13:52:18.502Z,11.27
2022-10-11T13:55:11.470Z,10.53
2022-10-11T13:58:15.025Z,11.77
2022-10-11T14:00:54.883Z,9.83
2022-10-11T14:03:24.673Z,10.37
2022-10-11T14:05:57.632Z,9.37
2022-10-11T14:08:33.069Z,9.53
2022-10-11T14:11:06.305Z,12.93
2022-10-11T14:13:37.638Z,9.23
2022-10-11T14:16:09.505Z,8.50
2022-10-11T14:18:47.641Z,8.73
2022-10-11T14:21:32.863Z,9.80
2022-10-11T14:24:05.976Z,7.33
2022-10-11T14:26:37.160Z,10.10
2022-10-11T14:29:08.877Z,10.90
2022-10-11T14:31:41.788Z,7.37
2022-10-11T14:34:18.029Z,10.73
2022-10-11T14:36:46.787Z,11.40
2022-10-11T14:39:19.809Z,7.70
2022-10-11T14:41:48.597Z,9.87
2022-10-11T14:44:17.272Z,7.90
2022-10-11T14:46:47.099Z,10.80
2022-10-11T14:49:16.887Z,10.03
2022-10-11T14:51:46.399Z,7.73
2022-10-11T14:54:18.878Z,10.77
2022-10-11T14:56:47.712Z,9.90
2022-10-11T14:59:17.943Z,8.70
2022-10-11T15:01:51.586Z,9.10
2022-10-11T15:04:20.388Z,12.03
2022-10-11T15:06:49.725Z,10.23
2022-10-11T15:12:04.416Z,9.93
2022-10-11T15:14:32.746Z,9.87
2022-10-11T15:17:00.990Z,10.63
2022-10-11T15:19:29.469Z,9.37
2022-10-11T15:21:57.851Z,7.90
2022-10-11T15:24:27.931Z,9.97
2022-10-11T15:26:56.234Z,7.93
2022-10-11T15:29:24.540Z,9.40
2022-10-11T15:34:35.544Z,10.30
2022-10-11T15:37:04.082Z,9.83
2022-10-11T15:39:33.903Z,11.03
2022-10-11T15:42:02.211Z,7.57
2022-10-11T15:44:30.393Z,10.17
2022-10-11T15:46:58.667Z,8.53
2022-10-11T15:49:26.970Z,10.27
2022-10-11T15:51:55.306Z,9.20
2022-10-11T15:54:23.646Z,10.30
2022-10-11T15:56:53.310Z,10.43
2022-10-11T15:59:21.589Z,10.63
2022-10-11T16:01:49.931Z,8.60
2022-10-11T16:04:18.348Z,8.87
2022-10-11T16:06:46.993Z,8.80
2022-10-11T16:09:15.273Z,10.13
2022-10-11T16:11:43.603Z,7.10
2022-10-11T16:14:13.251Z,8.50
2022-10-11T16:16:41.535Z,10.00
2022-10-11T16:19:11.034Z,10.37
2022-10-11T16:21:39.317Z,6.47
2022-10-11T16:24:09.504Z,8.77
2022-10-11T16:26:37.753Z,8.17
2022-10-11T16:29:06.098Z,7.90
2022-10-11T16:31:35.798Z,8.50
2022-10-11T16:34:04.869Z,7.07
2022-10-11T16:36:35.991Z,8.07
2022-10-11T16:39:08.779Z,7.67
2022-10-11T16:41:37.359Z,8.43
2022-10-11T16:44:06.160Z,7.67
2022-10-11T16:46:36.075Z,9.37
2022-10-11T16:49:05.518Z,7.07
2022-10-11T16:51:48.553Z,7.60
2022-10-11T16:54:20.706Z,8.37
2022-10-11T16:56:52.828Z,7.80
2022-10-11T16:59:26.876Z,6.63
2022-10-11T17:01:59.791Z,8.93
2022-10-11T17:04:33.881Z,7.43
2022-10-11T17:07:13.590Z,6.53
2022-10-11T17:09:44.156Z,8.70
2022-10-11T17:12:14.186Z,9.13
2022-10-11T17:14:43.419Z,7.57
2022-10-11T17:17:13.946Z,8.80
2022-10-11T17:19:45.336Z,8.10
2022-10-11T17:22:16.436Z,9.70
2022-10-11T17:24:48.362Z,7.60
2022-10-11T17:27:17.609Z,9.67
2022-10-11T17:29:46.466Z,9.90
2022-10-11T17:32:19.889Z,7.00
2022-10-11T17:34:48.811Z,9.03
2022-10-11T17:37:17.240Z,8.73
2022-10-11T17:39:45.627Z,12.23
2022-10-11T17:42:13.990Z,17.60
2022-10-11T17:44:42.530Z,23.20
2022-10-11T17:47:11.260Z,17.93
2022-10-11T17:49:41.316Z,19.00
2022-10-11T17:52:09.886Z,16.77
2022-10-11T17:54:42.977Z,14.63
2022-10-11T17:57:11.408Z,13.13
2022-10-11T17:59:39.840Z,10.23
2022-10-11T18:02:08.403Z,10.63
2022-10-11T18:04:37.663Z,12.77
2022-10-11T18:07:08.881Z,15.37
2022-10-11T18:09:37.338Z,12.93
2022-10-11T18:12:06.140Z,16.60
2022-10-11T18:14:34.649Z,17.57
2022-10-11T18:17:03.661Z,16.80
2022-10-11T18:19:32.500Z,13.73
2022-10-11T18:24:44.893Z,13.47
2022-10-11T18:27:13.649Z,13.63
2022-10-11T18:29:44.595Z,13.33
2022-10-11T18:32:13.909Z,11.83
2022-10-11T18:34:42.596Z,13.87
2022-10-11T18:37:11.149Z,13.20
2022-10-11T18:39:40.255Z,12.73
2022-10-11T18:42:10.403Z,12.17
2022-10-11T18:44:39.361Z,14.03
2022-10-11T18:47:07.888Z,14.57
2022-10-11T18:49:36.443Z,15.47
2022-10-11T18:52:05.466Z,15.57
2022-10-11T18:54:35.085Z,16.50
2022-10-11T18:57:08.274Z,20.60
2022-10-11T18:59:55.514Z,18.90
2022-10-11T19:02:24.901Z,17.87
2022-10-11T19:04:54.793Z,15.70
2022-10-11T19:07:26.044Z,13.47
2022-10-11T19:09:59.717Z,13.47
2022-10-11T19:12:28.942Z,12.27
2022-10-11T19:14:59.399Z,10.03
2022-10-11T19:17:30.025Z,11.57
2022-10-11T19:19:59.593Z,11.70
2022-10-11T19:22:33.580Z,11.83
2022-10-11T19:25:03.564Z,13.40
2022-10-11T19:27:33.525Z,12.93
2022-10-11T19:30:06.914Z,11.23
2022-10-11T19:32:35.894Z,13.00
2022-10-11T19:35:04.363Z,10.87
2022-10-11T19:37:33.284Z,11.93
2022-10-11T19:40:03.960Z,11.20
2022-10-11T19:42:32.786Z,10.87
2022-10-11T19:45:01.474Z,10.53
2022-10-11T19:47:31.654Z,12.13
2022-10-11T19:50:00.187Z,13.13
2022-10-11T19:52:28.650Z,11.90
2022-10-11T19:54:57.887Z,11.13
2022-10-11T19:57:26.402Z,10.47
2022-10-11T19:59:54.723Z,9.47
2022-10-11T20:02:23.567Z,9.93
2022-10-11T20:04:54.040Z,9.87
2022-10-11T20:07:23.242Z,10.33
2022-10-11T20:09:52.571Z,9.17
2022-10-11T20:12:21.141Z,9.87
2022-10-11T20:14:49.750Z,11.50
2022-10-11T20:17:18.146Z,11.80
2022-10-11T20:19:46.536Z,9.93
2022-10-11T20:22:16.706Z,9.73
2022-10-11T20:24:45.189Z,10.97
2022-10-11T20:27:13.657Z,11.30
2022-10-11T20:29:42.146Z,10.10
2022-10-11T20:32:11.379Z,8.77
2022-10-11T20:34:39.993Z,9.57
2022-10-11T20:37:25.685Z,9.97
2022-10-11T20:39:54.065Z,8.73
2022-10-11T20:42:25.292Z,10.13
2022-10-11T20:44:56.204Z,10.80
2022-10-11T20:47:24.591Z,9.47
2022-10-11T20:49:53.312Z,8.87
2022-10-11T20:52:22.195Z,10.10
2022-10-11T20:54:52.084Z,10.23
2022-10-11T20:57:20.705Z,10.13
2022-10-11T20:59:49.394Z,9.20
2022-10-11T21:02:19.100Z,10.00
2022-10-11T21:04:47.612Z,9.80
2022-10-11T21:07:15.955Z,10.57
2022-10-11T21:09:44.407Z,7.90
2022-10-11T21:12:14.211Z,8.23
2022-10-11T21:14:57.497Z,10.13
2022-10-11T21:17:26.936Z,10.93
2022-10-11T21:19:55.369Z,10.07
2022-10-11T21:22:23.891Z,9.47
2022-10-11T21:24:52.277Z,9.63
2022-10-11T21:27:22.564Z,9.20
2022-10-11T21:29:51.119Z,12.10
2022-10-11T21:32:34.918Z,12.27
2022-10-11T21:35:05.452Z,10.17
2022-10-11T21:37:33.979Z,8.80
2022-10-11T21:40:02.357Z,10.20
2022-10-11T21:42:32.000Z,14.50
2022-10-11T21:45:00.350Z,10.47
2022-10-11T21:47:28.675Z,8.77
2022-10-11T21:49:57.467Z,9.57
2022-10-11T21:52:26.057Z,9.67
2022-10-11T21:54:55.080Z,11.47
2022-10-11T22:03:42.358Z,8.70
2022-10-11T22:57:41.682Z,9.57
2022-10-11T23:00:13.231Z,9.93
2022-10-11T23:02:46.122Z,8.97
2022-10-11T23:05:15.118Z,9.57
2022-10-11T23:20:25.454Z,10.50
2022-10-11T23:25:51.029Z,8.87
2022-10-11T23:41:00.367Z,8.97
2022-10-11T23:43:29.119Z,10.30
